sensor_id;sensor_type;location;lat;lon;timestamp;P1;durP1;ratioP1;P2;durP2;ratioP2
33413;SDS011;60055;41.884;12.534;2024-02-14T00:02:01;8.83;;;4.73;;
33413;SDS011;60055;41.884;12.534;2024-02-14T00:04:34;7.72;;;4.88;;
33413;SDS011;60055;41.884;12.534;2024-02-14T00:06:59;10.32;;;4.90;;
33413;SDS011;60055;41.884;12.534;2024-02-14T00:09:31;13.07;;;5.45;;
33413;SDS011;60055;41.884;12.534;2024-02-14T00:11:57;10.07;;;5.00;;
33413;SDS011;60055;41.884;12.534;2024-02-14T00:14:23;14.75;;;5.15;;
33413;SDS011;60055;41.884;12.534;2024-02-14T00:20:02;8.20;;;4.57;;
33413;SDS011;60055;41.884;12.534;2024-02-14T00:22:49;11.43;;;4.70;;
33413;SDS011;60055;41.884;12.534;2024-02-14T00:43:55;7.00;;;3.75;;
33413;SDS011;60055;41.884;12.534;2024-02-14T00:46:43;7.40;;;4.35;;
33413;SDS011;60055;41.884;12.534;2024-02-14T00:49:20;6.78;;;3.80;;
33413;SDS011;60055;41.884;12.534;2024-02-14T00:51:58;7.20;;;3.80;;
33413;SDS011;60055;41.884;12.534;2024-02-14T00:57:20;6.57;;;3.83;;
33413;SDS011;60055;41.884;12.534;2024-02-14T00:59:51;9.10;;;3.80;;
33413;SDS011;60055;41.884;12.534;2024-02-14T01:02:57;9.38;;;3.88;;
33413;SDS011;60055;41.884;12.534;2024-02-14T01:08:26;8.45;;;4.05;;
33413;SDS011;60055;41.884;12.534;2024-02-14T01:10:53;5.18;;;3.65;;
33413;SDS011;60055;41.884;12.534;2024-02-14T01:13:18;6.82;;;3.97;;
33413;SDS011;60055;41.884;12.534;2024-02-14T01:15:44;5.60;;;3.40;;
33413;SDS011;60055;41.884;12.534;2024-02-14T01:18:25;6.60;;;4.22;;
33413;SDS011;60055;41.884;12.534;2024-02-14T01:21:00;7.43;;;3.75;;
33413;SDS011;60055;41.884;12.534;2024-02-14T01:23:26;7.35;;;3.97;;
33413;SDS011;60055;41.884;12.534;2024-02-14T01:25:52;8.10;;;4.18;;
33413;SDS011;60055;41.884;12.534;2024-02-14T01:37:54;7.90;;;4.35;;
33413;SDS011;60055;41.884;12.534;2024-02-14T01:40:20;9.02;;;4.72;;
33413;SDS011;60055;41.884;12.534;2024-02-14T01:43:06;8.88;;;4.63;;
33413;SDS011;60055;41.884;12.534;2024-02-14T01:45:32;8.48;;;4.70;;
33413;SDS011;60055;41.884;12.534;2024-02-14T01:47:57;7.28;;;4.53;;
33413;SDS011;60055;41.884;12.534;2024-02-14T01:50:23;6.43;;;4.43;;
33413;SDS011;60055;41.884;12.534;2024-02-14T01:55:33;7.95;;;4.80;;
33413;SDS011;60055;41.884;12.534;2024-02-14T01:58:17;7.20;;;4.50;;
33413;SDS011;60055;41.884;12.534;2024-02-14T02:00:53;8.93;;;4.60;;
33413;SDS011;60055;41.884;12.534;2024-02-14T02:03:28;8.25;;;4.55;;
33413;SDS011;60055;41.884;12.534;2024-02-14T02:06:04;7.75;;;4.47;;
33413;SDS011;60055;41.884;12.534;2024-02-14T02:08:31;7.93;;;4.63;;
33413;SDS011;60055;41.884;12.534;2024-02-14T02:10:58;9.07;;;4.60;;
33413;SDS011;60055;41.884;12.534;2024-02-14T02:13:26;8.80;;;4.78;;
33413;SDS011;60055;41.884;12.534;2024-02-14T02:15:55;8.80;;;4.60;;
33413;SDS011;60055;41.884;12.534;2024-02-14T02:18:20;7.90;;;4.55;;
33413;SDS011;60055;41.884;12.534;2024-02-14T02:21:01;8.05;;;4.80;;
33413;SDS011;60055;41.884;12.534;2024-02-14T02:23:29;9.60;;;5.13;;
33413;SDS011;60055;41.884;12.534;2024-02-14T02:25:58;6.05;;;4.18;;
33413;SDS011;60055;41.884;12.534;2024-02-14T02:28:32;7.78;;;4.90;;
33413;SDS011;60055;41.884;12.534;2024-02-14T02:30:58;8.02;;;4.70;;
33413;SDS011;60055;41.884;12.534;2024-02-14T02:33:27;8.10;;;5.07;;
33413;SDS011;60055;41.884;12.534;2024-02-14T02:35:52;9.73;;;4.68;;
33413;SDS011;60055;41.884;12.534;2024-02-14T02:38:18;6.57;;;4.35;;
33413;SDS011;60055;41.884;12.534;2024-02-14T02:40:49;7.72;;;4.90;;
33413;SDS011;60055;41.884;12.534;2024-02-14T02:43:15;8.70;;;4.43;;
33413;SDS011;60055;41.884;12.534;2024-02-14T02:45:41;9.05;;;4.82;;
33413;SDS011;60055;41.884;12.534;2024-02-14T02:48:15;8.00;;;4.65;;
33413;SDS011;60055;41.884;12.534;2024-02-14T02:50:41;7.35;;;4.60;;
33413;SDS011;60055;41.884;12.534;2024-02-14T02:53:09;7.78;;;4.72;;
33413;SDS011;60055;41.884;12.534;2024-02-14T02:56:00;6.63;;;4.38;;
33413;SDS011;60055;41.884;12.534;2024-02-14T02:58:26;7.50;;;4.68;;
33413;SDS011;60055;41.884;12.534;2024-02-14T03:00:51;7.68;;;4.57;;
33413;SDS011;60055;41.884;12.534;2024-02-14T03:03:29;7.97;;;4.45;;
33413;SDS011;60055;41.884;12.534;2024-02-14T03:06:00;6.78;;;4.72;;
33413;SDS011;60055;41.884;12.534;2024-02-14T03:08:29;7.32;;;4.80;;
33413;SDS011;60055;41.884;12.534;2024-02-14T03:10:55;9.82;;;5.32;;
33413;SDS011;60055;41.884;12.534;2024-02-14T03:13:24;8.73;;;4.90;;
33413;SDS011;60055;41.884;12.534;2024-02-14T03:15:51;7.95;;;5.30;;
33413;SDS011;60055;41.884;12.534;2024-02-14T03:18:17;8.85;;;4.90;;
33413;SDS011;60055;41.884;12.534;2024-02-14T03:20:43;8.27;;;5.38;;
33413;SDS011;60055;41.884;12.534;2024-02-14T03:23:08;9.73;;;5.03;;
33413;SDS011;60055;41.884;12.534;2024-02-14T03:25:54;8.52;;;5.50;;
33413;SDS011;60055;41.884;12.534;2024-02-14T03:28:22;7.60;;;4.97;;
33413;SDS011;60055;41.884;12.534;2024-02-14T03:31:11;9.50;;;5.38;;
33413;SDS011;60055;41.884;12.534;2024-02-14T03:33:40;9.18;;;5.55;;
33413;SDS011;60055;41.884;12.534;2024-02-14T03:36:06;11.57;;;6.53;;
33413;SDS011;60055;41.884;12.534;2024-02-14T03:38:32;9.40;;;5.88;;
33413;SDS011;60055;41.884;12.534;2024-02-14T03:40:57;9.68;;;5.47;;
33413;SDS011;60055;41.884;12.534;2024-02-14T03:43:26;8.65;;;5.57;;
33413;SDS011;60055;41.884;12.534;2024-02-14T03:45:54;8.77;;;5.50;;
33413;SDS011;60055;41.884;12.534;2024-02-14T03:48:21;8.10;;;5.45;;
33413;SDS011;60055;41.884;12.534;2024-02-14T03:50:50;8.52;;;5.20;;
33413;SDS011;60055;41.884;12.534;2024-02-14T03:53:16;7.97;;;5.47;;
33413;SDS011;60055;41.884;12.534;2024-02-14T03:55:45;8.95;;;5.40;;
33413;SDS011;60055;41.884;12.534;2024-02-14T03:58:14;10.32;;;5.18;;
33413;SDS011;60055;41.884;12.534;2024-02-14T04:00:44;9.38;;;5.50;;
33413;SDS011;60055;41.884;12.534;2024-02-14T04:03:13;9.10;;;5.70;;
33413;SDS011;60055;41.884;12.534;2024-02-14T04:05:38;8.50;;;5.50;;
33413;SDS011;60055;41.884;12.534;2024-02-14T04:08:09;10.10;;;5.35;;
33413;SDS011;60055;41.884;12.534;2024-02-14T04:10:37;7.68;;;5.30;;
33413;SDS011;60055;41.884;12.534;2024-02-14T04:13:03;7.60;;;5.18;;
33413;SDS011;60055;41.884;12.534;2024-02-14T04:15:30;9.32;;;5.63;;
33413;SDS011;60055;41.884;12.534;2024-02-14T04:17:56;10.85;;;5.22;;
33413;SDS011;60055;41.884;12.534;2024-02-14T04:20:24;8.48;;;5.38;;
33413;SDS011;60055;41.884;12.534;2024-02-14T04:22:53;10.88;;;5.00;;
33413;SDS011;60055;41.884;12.534;2024-02-14T04:25:40;9.88;;;5.22;;
33413;SDS011;60055;41.884;12.534;2024-02-14T04:28:11;9.23;;;5.10;;
33413;SDS011;60055;41.884;12.534;2024-02-14T04:30:37;8.40;;;5.20;;
33413;SDS011;60055;41.884;12.534;2024-02-14T04:33:03;8.70;;;4.80;;
33413;SDS011;60055;41.884;12.534;2024-02-14T04:35:30;10.40;;;5.00;;
33413;SDS011;60055;41.884;12.534;2024-02-14T04:37:55;11.05;;;5.25;;
33413;SDS011;60055;41.884;12.534;2024-02-14T04:43:10;7.85;;;5.05;;
33413;SDS011;60055;41.884;12.534;2024-02-14T04:45:39;7.72;;;4.97;;
33413;SDS011;60055;41.884;12.534;2024-02-14T04:48:05;8.18;;;5.07;;
33413;SDS011;60055;41.884;12.534;2024-02-14T04:50:31;7.70;;;5.13;;
33413;SDS011;60055;41.884;12.534;2024-02-14T04:53:09;7.25;;;4.72;;
33413;SDS011;60055;41.884;12.534;2024-02-14T04:55:35;7.53;;;5.00;;
33413;SDS011;60055;41.884;12.534;2024-02-14T04:58:01;6.53;;;4.40;;
33413;SDS011;60055;41.884;12.534;2024-02-14T05:00:26;13.73;;;7.00;;
33413;SDS011;60055;41.884;12.534;2024-02-14T05:02:53;9.48;;;5.05;;
33413;SDS011;60055;41.884;12.534;2024-02-14T05:05:18;8.73;;;4.95;;
33413;SDS011;60055;41.884;12.534;2024-02-14T05:07:45;7.85;;;5.13;;
33413;SDS011;60055;41.884;12.534;2024-02-14T05:10:34;7.82;;;5.20;;
33413;SDS011;60055;41.884;12.534;2024-02-14T05:13:03;10.82;;;4.80;;
33413;SDS011;60055;41.884;12.534;2024-02-14T05:16:02;10.35;;;5.95;;
33413;SDS011;60055;41.884;12.534;2024-02-14T05:19:04;11.10;;;5.80;;
33413;SDS011;60055;41.884;12.534;2024-02-14T05:21:23;13.77;;;6.03;;
33413;SDS011;60055;41.884;12.534;2024-02-14T05:23:49;8.63;;;5.45;;
33413;SDS011;60055;41.884;12.534;2024-02-14T05:26:18;13.07;;;5.50;;
33413;SDS011;60055;41.884;12.534;2024-02-14T05:29:09;12.07;;;5.78;;
33413;SDS011;60055;41.884;12.534;2024-02-14T05:31:53;9.85;;;5.38;;
33413;SDS011;60055;41.884;12.534;2024-02-14T05:34:22;10.00;;;5.88;;
33413;SDS011;60055;41.884;12.534;2024-02-14T05:37:29;10.98;;;5.75;;
33413;SDS011;60055;41.884;12.534;2024-02-14T05:40:02;7.53;;;5.07;;
33413;SDS011;60055;41.884;12.534;2024-02-14T05:42:36;9.65;;;5.75;;
33413;SDS011;60055;41.884;12.534;2024-02-14T05:45:02;10.32;;;5.57;;
33413;SDS011;60055;41.884;12.534;2024-02-14T05:47:28;11.10;;;5.07;;
33413;SDS011;60055;41.884;12.534;2024-02-14T05:50:23;9.15;;;5.88;;
33413;SDS011;60055;41.884;12.534;2024-02-14T05:52:49;11.20;;;5.60;;
33413;SDS011;60055;41.884;12.534;2024-02-14T05:55:18;7.90;;;5.55;;
33413;SDS011;60055;41.884;12.534;2024-02-14T05:57:46;9.45;;;4.95;;
33413;SDS011;60055;41.884;12.534;2024-02-14T06:00:14;9.93;;;5.47;;
33413;SDS011;60055;41.884;12.534;2024-02-14T06:02:47;8.93;;;5.88;;
33413;SDS011;60055;41.884;12.534;2024-02-14T06:05:13;10.45;;;6.00;;
33413;SDS011;60055;41.884;12.534;2024-02-14T06:07:42;8.82;;;5.30;;
33413;SDS011;60055;41.884;12.534;2024-02-14T06:10:21;8.90;;;5.22;;
33413;SDS011;60055;41.884;12.534;2024-02-14T06:12:50;10.02;;;5.15;;
33413;SDS011;60055;41.884;12.534;2024-02-14T06:15:31;8.23;;;5.28;;
33413;SDS011;60055;41.884;12.534;2024-02-14T06:18:03;8.05;;;5.10;;
33413;SDS011;60055;41.884;12.534;2024-02-14T06:24:22;8.82;;;4.82;;
33413;SDS011;60055;41.884;12.534;2024-02-14T06:30:00;9.43;;;5.15;;
33413;SDS011;60055;41.884;12.534;2024-02-14T06:32:32;8.82;;;5.45;;
33413;SDS011;60055;41.884;12.534;2024-02-14T06:45:33;12.35;;;5.22;;
33413;SDS011;60055;41.884;12.534;2024-02-14T06:48:02;11.70;;;4.97;;
33413;SDS011;60055;41.884;12.534;2024-02-14T06:50:28;10.15;;;5.18;;
33413;SDS011;60055;41.884;12.534;2024-02-14T06:53:00;8.60;;;5.30;;
33413;SDS011;60055;41.884;12.534;2024-02-14T06:55:28;9.40;;;4.93;;
33413;SDS011;60055;41.884;12.534;2024-02-14T06:57:59;10.73;;;5.95;;
33413;SDS011;60055;41.884;12.534;2024-02-14T07:03:29;17.10;;;6.15;;
33413;SDS011;60055;41.884;12.534;2024-02-14T07:05:55;10.98;;;6.30;;
33413;SDS011;60055;41.884;12.534;2024-02-14T07:08:20;11.70;;;6.22;;
33413;SDS011;60055;41.884;12.534;2024-02-14T07:11:07;9.68;;;5.80;;
33413;SDS011;60055;41.884;12.534;2024-02-14T07:13:32;11.93;;;6.25;;
33413;SDS011;60055;41.884;12.534;2024-02-14T07:16:01;13.77;;;6.35;;
33413;SDS011;60055;41.884;12.534;2024-02-14T07:18:27;13.15;;;6.68;;
33413;SDS011;60055;41.884;12.534;2024-02-14T07:20:52;11.90;;;6.07;;
33413;SDS011;60055;41.884;12.534;2024-02-14T07:23:23;11.05;;;6.78;;
33413;SDS011;60055;41.884;12.534;2024-02-14T07:25:51;13.10;;;7.38;;
33413;SDS011;60055;41.884;12.534;2024-02-14T07:28:40;19.23;;;8.15;;
33413;SDS011;60055;41.884;12.534;2024-02-14T07:34:39;19.05;;;9.45;;
33413;SDS011;60055;41.884;12.534;2024-02-14T07:37:32;15.77;;;8.00;;
33413;SDS011;60055;41.884;12.534;2024-02-14T07:39:58;14.88;;;7.45;;
33413;SDS011;60055;41.884;12.534;2024-02-14T07:42:24;12.95;;;6.85;;
33413;SDS011;60055;41.884;12.534;2024-02-14T07:44:49;12.07;;;6.78;;
33413;SDS011;60055;41.884;12.534;2024-02-14T07:47:15;13.85;;;6.95;;
33413;SDS011;60055;41.884;12.534;2024-02-14T07:49:41;8.73;;;5.78;;
33413;SDS011;60055;41.884;12.534;2024-02-14T07:52:07;13.43;;;6.63;;
33413;SDS011;60055;41.884;12.534;2024-02-14T07:57:27;11.40;;;5.47;;
33413;SDS011;60055;41.884;12.534;2024-02-14T07:59:53;11.13;;;5.90;;
33413;SDS011;60055;41.884;12.534;2024-02-14T08:02:20;14.95;;;6.43;;
33413;SDS011;60055;41.884;12.534;2024-02-14T08:04:45;17.92;;;6.53;;
33413;SDS011;60055;41.884;12.534;2024-02-14T08:07:11;12.40;;;6.75;;
33413;SDS011;60055;41.884;12.534;2024-02-14T08:09:37;14.65;;;5.63;;
33413;SDS011;60055;41.884;12.534;2024-02-14T08:12:04;13.13;;;5.82;;
33413;SDS011;60055;41.884;12.534;2024-02-14T08:14:30;30.77;;;8.30;;
33413;SDS011;60055;41.884;12.534;2024-02-14T08:16:56;29.98;;;7.85;;
33413;SDS011;60055;41.884;12.534;2024-02-14T08:19:22;14.15;;;5.80;;
33413;SDS011;60055;41.884;12.534;2024-02-14T08:21:48;21.35;;;6.50;;
33413;SDS011;60055;41.884;12.534;2024-02-14T08:24:13;16.92;;;5.72;;
33413;SDS011;60055;41.884;12.534;2024-02-14T08:26:39;12.05;;;5.68;;
33413;SDS011;60055;41.884;12.534;2024-02-14T08:29:04;19.30;;;6.05;;
33413;SDS011;60055;41.884;12.534;2024-02-14T08:31:30;12.05;;;5.07;;
33413;SDS011;60055;41.884;12.534;2024-02-14T08:33:56;12.05;;;5.30;;
33413;SDS011;60055;41.884;12.534;2024-02-14T08:36:21;8.02;;;4.93;;
33413;SDS011;60055;41.884;12.534;2024-02-14T08:38:47;17.20;;;5.10;;
33413;SDS011;60055;41.884;12.534;2024-02-14T08:41:13;12.38;;;5.10;;
33413;SDS011;60055;41.884;12.534;2024-02-14T08:43:39;15.25;;;5.72;;
33413;SDS011;60055;41.884;12.534;2024-02-14T08:46:11;12.85;;;5.50;;
33413;SDS011;60055;41.884;12.534;2024-02-14T08:48:37;18.60;;;6.22;;
33413;SDS011;60055;41.884;12.534;2024-02-14T08:51:07;14.80;;;5.18;;
33413;SDS011;60055;41.884;12.534;2024-02-14T08:53:34;13.40;;;5.47;;
33413;SDS011;60055;41.884;12.534;2024-02-14T08:56:01;13.15;;;5.05;;
33413;SDS011;60055;41.884;12.534;2024-02-14T08:58:29;7.85;;;4.97;;
33413;SDS011;60055;41.884;12.534;2024-02-14T09:00:55;8.20;;;4.63;;
33413;SDS011;60055;41.884;12.534;2024-02-14T09:03:23;7.95;;;4.80;;
33413;SDS011;60055;41.884;12.534;2024-02-14T09:05:49;9.13;;;4.22;;
33413;SDS011;60055;41.884;12.534;2024-02-14T09:08:16;5.97;;;4.10;;
33413;SDS011;60055;41.884;12.534;2024-02-14T09:10:42;7.85;;;4.22;;
33413;SDS011;60055;41.884;12.534;2024-02-14T09:13:08;34.25;;;5.47;;
33413;SDS011;60055;41.884;12.534;2024-02-14T09:15:34;8.57;;;3.67;;
33413;SDS011;60055;41.884;12.534;2024-02-14T09:18:00;7.68;;;3.80;;
33413;SDS011;60055;41.884;12.534;2024-02-14T09:20:26;6.53;;;4.07;;
33413;SDS011;60055;41.884;12.534;2024-02-14T09:22:51;9.50;;;4.15;;
33413;SDS011;60055;41.884;12.534;2024-02-14T09:25:18;7.30;;;3.70;;
33413;SDS011;60055;41.884;12.534;2024-02-14T09:27:44;7.95;;;3.90;;
33413;SDS011;60055;41.884;12.534;2024-02-14T09:30:12;12.95;;;4.00;;
33413;SDS011;60055;41.884;12.534;2024-02-14T09:32:38;7.38;;;3.30;;
33413;SDS011;60055;41.884;12.534;2024-02-14T09:35:04;9.35;;;4.03;;
33413;SDS011;60055;41.884;12.534;2024-02-14T09:37:32;11.55;;;4.35;;
33413;SDS011;60055;41.884;12.534;2024-02-14T09:39:58;7.32;;;3.55;;
33413;SDS011;60055;41.884;12.534;2024-02-14T09:48:43;5.50;;;3.47;;
33413;SDS011;60055;41.884;12.534;2024-02-14T09:51:10;8.52;;;3.45;;
33413;SDS011;60055;41.884;12.534;2024-02-14T09:53:37;6.45;;;3.40;;
33413;SDS011;60055;41.884;12.534;2024-02-14T09:56:04;8.68;;;3.47;;
33413;SDS011;60055;41.884;12.534;2024-02-14T09:58:33;7.15;;;3.42;;
33413;SDS011;60055;41.884;12.534;2024-02-14T10:01:01;7.25;;;3.33;;
33413;SDS011;60055;41.884;12.534;2024-02-14T10:03:28;7.20;;;3.35;;
33413;SDS011;60055;41.884;12.534;2024-02-14T10:05:56;6.68;;;3.42;;
33413;SDS011;60055;41.884;12.534;2024-02-14T10:08:22;11.95;;;3.30;;
33413;SDS011;60055;41.884;12.534;2024-02-14T10:10:48;6.38;;;3.50;;
33413;SDS011;60055;41.884;12.534;2024-02-14T10:13:15;10.05;;;4.00;;
33413;SDS011;60055;41.884;12.534;2024-02-14T10:15:41;7.35;;;3.08;;
33413;SDS011;60055;41.884;12.534;2024-02-14T10:18:07;5.55;;;2.90;;
33413;SDS011;60055;41.884;12.534;2024-02-14T10:20:52;5.95;;;3.00;;
33413;SDS011;60055;41.884;12.534;2024-02-14T10:23:19;9.52;;;2.67;;
33413;SDS011;60055;41.884;12.534;2024-02-14T10:25:45;6.63;;;2.58;;
33413;SDS011;60055;41.884;12.534;2024-02-14T10:28:12;6.32;;;2.55;;
33413;SDS011;60055;41.884;12.534;2024-02-14T10:30:37;5.00;;;2.70;;
33413;SDS011;60055;41.884;12.534;2024-02-14T10:33:05;4.65;;;2.53;;
33413;SDS011;60055;41.884;12.534;2024-02-14T10:35:32;5.03;;;2.17;;
33413;SDS011;60055;41.884;12.534;2024-02-14T10:38:02;6.95;;;2.17;;
33413;SDS011;60055;41.884;12.534;2024-02-14T10:40:28;4.47;;;2.20;;
33413;SDS011;60055;41.884;12.534;2024-02-14T10:42:54;2.72;;;1.80;;
33413;SDS011;60055;41.884;12.534;2024-02-14T10:45:26;3.33;;;1.92;;
33413;SDS011;60055;41.884;12.534;2024-02-14T10:47:52;3.85;;;2.10;;
33413;SDS011;60055;41.884;12.534;2024-02-14T10:50:21;3.58;;;2.28;;
33413;SDS011;60055;41.884;12.534;2024-02-14T10:52:50;5.05;;;2.25;;
33413;SDS011;60055;41.884;12.534;2024-02-14T10:55:24;4.00;;;1.95;;
33413;SDS011;60055;41.884;12.534;2024-02-14T10:58:25;7.75;;;2.30;;
33413;SDS011;60055;41.884;12.534;2024-02-14T11:01:03;4.07;;;2.03;;
33413;SDS011;60055;41.884;12.534;2024-02-14T11:03:41;3.28;;;1.80;;
33413;SDS011;60055;41.884;12.534;2024-02-14T11:06:08;6.65;;;1.73;;
33413;SDS011;60055;41.884;12.534;2024-02-14T11:08:34;2.95;;;1.45;;
33413;SDS011;60055;41.884;12.534;2024-02-14T11:11:00;2.00;;;1.20;;
33413;SDS011;60055;41.884;12.534;2024-02-14T11:13:29;3.22;;;1.20;;
33413;SDS011;60055;41.884;12.534;2024-02-14T11:15:56;10.65;;;1.63;;
33413;SDS011;60055;41.884;12.534;2024-02-14T11:18:28;3.47;;;1.30;;
33413;SDS011;60055;41.884;12.534;2024-02-14T11:21:04;3.58;;;1.40;;
33413;SDS011;60055;41.884;12.534;2024-02-14T11:23:33;2.40;;;1.30;;
33413;SDS011;60055;41.884;12.534;2024-02-14T11:25:59;3.40;;;1.50;;
33413;SDS011;60055;41.884;12.534;2024-02-14T11:28:26;6.05;;;2.15;;
33413;SDS011;60055;41.884;12.534;2024-02-14T11:31:02;3.10;;;1.50;;
33413;SDS011;60055;41.884;12.534;2024-02-14T11:33:28;1.77;;;1.20;;
33413;SDS011;60055;41.884;12.534;2024-02-14T11:35:55;2.30;;;1.30;;
33413;SDS011;60055;41.884;12.534;2024-02-14T11:38:26;3.08;;;1.30;;
33413;SDS011;60055;41.884;12.534;2024-02-14T11:40:53;1.48;;;1.10;;
33413;SDS011;60055;41.884;12.534;2024-02-14T11:43:21;2.83;;;1.60;;
33413;SDS011;60055;41.884;12.534;2024-02-14T11:45:48;3.08;;;1.60;;
33413;SDS011;60055;41.884;12.534;2024-02-14T11:48:24;3.90;;;1.40;;
33413;SDS011;60055;41.884;12.534;2024-02-14T11:50:51;2.10;;;1.40;;
33413;SDS011;60055;41.884;12.534;2024-02-14T11:53:41;2.50;;;1.23;;
33413;SDS011;60055;41.884;12.534;2024-02-14T11:56:07;5.85;;;1.40;;
33413;SDS011;60055;41.884;12.534;2024-02-14T11:58:33;2.97;;;1.25;;
33413;SDS011;60055;41.884;12.534;2024-02-14T12:00:59;2.67;;;1.10;;
33413;SDS011;60055;41.884;12.534;2024-02-14T12:03:30;2.42;;;1.15;;
33413;SDS011;60055;41.884;12.534;2024-02-14T12:06:03;2.17;;;1.20;;
33413;SDS011;60055;41.884;12.534;2024-02-14T12:08:29;2.78;;;1.40;;
33413;SDS011;60055;41.884;12.534;2024-02-14T12:10:56;4.32;;;1.10;;
33413;SDS011;60055;41.884;12.534;2024-02-14T12:13:22;1.70;;;1.13;;
33413;SDS011;60055;41.884;12.534;2024-02-14T12:15:48;1.45;;;1.10;;
33413;SDS011;60055;41.884;12.534;2024-02-14T12:18:15;3.08;;;1.25;;
33413;SDS011;60055;41.884;12.534;2024-02-14T12:20:43;2.25;;;1.10;;
33413;SDS011;60055;41.884;12.534;2024-02-14T12:23:15;3.25;;;1.08;;
33413;SDS011;60055;41.884;12.534;2024-02-14T12:25:42;1.98;;;1.15;;
33413;SDS011;60055;41.884;12.534;2024-02-14T12:28:08;1.88;;;1.00;;
33413;SDS011;60055;41.884;12.534;2024-02-14T12:30:43;4.68;;;1.20;;
33413;SDS011;60055;41.884;12.534;2024-02-14T12:33:13;2.30;;;1.23;;
33413;SDS011;60055;41.884;12.534;2024-02-14T12:35:45;3.75;;;1.70;;
33413;SDS011;60055;41.884;12.534;2024-02-14T12:38:13;4.18;;;1.42;;
33413;SDS011;60055;41.884;12.534;2024-02-14T12:40:42;1.58;;;1.00;;
33413;SDS011;60055;41.884;12.534;2024-02-14T12:43:13;1.90;;;0.95;;
33413;SDS011;60055;41.884;12.534;2024-02-14T12:45:41;3.55;;;1.30;;
33413;SDS011;60055;41.884;12.534;2024-02-14T12:48:07;3.67;;;1.10;;
33413;SDS011;60055;41.884;12.534;2024-02-14T12:50:33;2.10;;;0.85;;
33413;SDS011;60055;41.884;12.534;2024-02-14T12:53:00;1.25;;;0.90;;
33413;SDS011;60055;41.884;12.534;2024-02-14T12:55:26;5.00;;;1.30;;
33413;SDS011;60055;41.884;12.534;2024-02-14T12:57:53;2.60;;;1.17;;
33413;SDS011;60055;41.884;12.534;2024-02-14T13:00:21;2.42;;;1.00;;
33413;SDS011;60055;41.884;12.534;2024-02-14T13:02:47;2.13;;;1.08;;
33413;SDS011;60055;41.884;12.534;2024-02-14T13:05:13;2.70;;;0.90;;
33413;SDS011;60055;41.884;12.534;2024-02-14T13:07:39;4.80;;;1.15;;
33413;SDS011;60055;41.884;12.534;2024-02-14T13:10:04;3.90;;;1.23;;
33413;SDS011;60055;41.884;12.534;2024-02-14T13:12:30;2.70;;;1.00;;
33413;SDS011;60055;41.884;12.534;2024-02-14T13:14:56;3.35;;;1.10;;
33413;SDS011;60055;41.884;12.534;2024-02-14T13:17:21;2.25;;;1.20;;
33413;SDS011;60055;41.884;12.534;2024-02-14T13:19:48;2.00;;;1.38;;
33413;SDS011;60055;41.884;12.534;2024-02-14T13:22:14;2.72;;;1.23;;
33413;SDS011;60055;41.884;12.534;2024-02-14T13:24:40;4.18;;;1.20;;
33413;SDS011;60055;41.884;12.534;2024-02-14T13:27:06;6.22;;;2.33;;
33413;SDS011;60055;41.884;12.534;2024-02-14T13:29:32;2.63;;;1.40;;
33413;SDS011;60055;41.884;12.534;2024-02-14T13:31:57;2.42;;;1.30;;
33413;SDS011;60055;41.884;12.534;2024-02-14T13:34:24;1.90;;;1.10;;
33413;SDS011;60055;41.884;12.534;2024-02-14T13:36:50;2.47;;;1.30;;
33413;SDS011;60055;41.884;12.534;2024-02-14T13:39:15;3.08;;;1.13;;
33413;SDS011;60055;41.884;12.534;2024-02-14T13:41:41;3.88;;;1.30;;
33413;SDS011;60055;41.884;12.534;2024-02-14T13:44:09;2.55;;;1.02;;
33413;SDS011;60055;41.884;12.534;2024-02-14T13:46:35;2.13;;;1.17;;
33413;SDS011;60055;41.884;12.534;2024-02-14T13:49:01;3.55;;;1.65;;
33413;SDS011;60055;41.884;12.534;2024-02-14T13:51:27;3.22;;;1.30;;
33413;SDS011;60055;41.884;12.534;2024-02-14T13:53:52;3.85;;;1.30;;
33413;SDS011;60055;41.884;12.534;2024-02-14T13:56:18;4.28;;;1.10;;
33413;SDS011;60055;41.884;12.534;2024-02-14T13:58:47;2.35;;;1.25;;
33413;SDS011;60055;41.884;12.534;2024-02-14T14:01:14;2.47;;;1.55;;
33413;SDS011;60055;41.884;12.534;2024-02-14T14:03:40;2.70;;;1.20;;
33413;SDS011;60055;41.884;12.534;2024-02-14T14:06:06;6.18;;;1.55;;
33413;SDS011;60055;41.884;12.534;2024-02-14T14:08:33;2.33;;;1.20;;
33413;SDS011;60055;41.884;12.534;2024-02-14T14:11:01;2.25;;;1.13;;
33413;SDS011;60055;41.884;12.534;2024-02-14T14:13:28;4.32;;;1.65;;
33413;SDS011;60055;41.884;12.534;2024-02-14T14:15:56;4.25;;;1.40;;
33413;SDS011;60055;41.884;12.534;2024-02-14T14:18:22;3.88;;;1.83;;
33413;SDS011;60055;41.884;12.534;2024-02-14T14:20:48;4.03;;;1.65;;
33413;SDS011;60055;41.884;12.534;2024-02-14T14:23:14;2.28;;;1.30;;
33413;SDS011;60055;41.884;12.534;2024-02-14T14:25:39;3.67;;;1.50;;
33413;SDS011;60055;41.884;12.534;2024-02-14T14:28:05;4.05;;;1.67;;
33413;SDS011;60055;41.884;12.534;2024-02-14T14:30:30;2.80;;;1.35;;
33413;SDS011;60055;41.884;12.534;2024-02-14T14:32:56;5.25;;;1.40;;
33413;SDS011;60055;41.884;12.534;2024-02-14T14:35:21;2.55;;;1.50;;
33413;SDS011;60055;41.884;12.534;2024-02-14T14:37:46;2.35;;;1.52;;
33413;SDS011;60055;41.884;12.534;2024-02-14T14:40:12;5.72;;;2.30;;
33413;SDS011;60055;41.884;12.534;2024-02-14T14:42:37;3.88;;;1.60;;
33413;SDS011;60055;41.884;12.534;2024-02-14T14:45:03;3.83;;;1.85;;
33413;SDS011;60055;41.884;12.534;2024-02-14T14:47:29;4.15;;;2.00;;
33413;SDS011;60055;41.884;12.534;2024-02-14T14:49:54;4.38;;;2.47;;
33413;SDS011;60055;41.884;12.534;2024-02-14T14:52:20;5.47;;;2.10;;
33413;SDS011;60055;41.884;12.534;2024-02-14T14:54:45;3.63;;;1.85;;
33413;SDS011;60055;41.884;12.534;2024-02-14T14:57:11;3.00;;;1.63;;
33413;SDS011;60055;41.884;12.534;2024-02-14T14:59:42;5.57;;;1.63;;
33413;SDS011;60055;41.884;12.534;2024-02-14T15:02:08;4.05;;;1.98;;
33413;SDS011;60055;41.884;12.534;2024-02-14T15:04:34;4.43;;;1.98;;
33413;SDS011;60055;41.884;12.534;2024-02-14T15:07:01;3.88;;;1.88;;
33413;SDS011;60055;41.884;12.534;2024-02-14T15:09:27;3.33;;;1.80;;
33413;SDS011;60055;41.884;12.534;2024-02-14T15:11:53;4.57;;;1.65;;
33413;SDS011;60055;41.884;12.534;2024-02-14T15:14:23;5.32;;;1.75;;
33413;SDS011;60055;41.884;12.534;2024-02-14T15:16:49;2.80;;;1.70;;
33413;SDS011;60055;41.884;12.534;2024-02-14T15:19:14;3.50;;;2.03;;
33413;SDS011;60055;41.884;12.534;2024-02-14T15:21:40;3.10;;;1.70;;
33413;SDS011;60055;41.884;12.534;2024-02-14T15:24:06;2.70;;;1.90;;
33413;SDS011;60055;41.884;12.534;2024-02-14T15:26:31;3.13;;;1.90;;
33413;SDS011;60055;41.884;12.534;2024-02-14T15:29:14;3.83;;;2.00;;
33413;SDS011;60055;41.884;12.534;2024-02-14T15:31:58;7.32;;;1.50;;
33413;SDS011;60055;41.884;12.534;2024-02-14T15:34:43;4.05;;;1.90;;
33413;SDS011;60055;41.884;12.534;2024-02-14T15:37:08;3.13;;;1.80;;
33413;SDS011;60055;41.884;12.534;2024-02-14T15:39:34;3.80;;;1.70;;
33413;SDS011;60055;41.884;12.534;2024-02-14T15:41:59;2.88;;;1.83;;
33413;SDS011;60055;41.884;12.534;2024-02-14T15:44:25;4.40;;;2.00;;
33413;SDS011;60055;41.884;12.534;2024-02-14T15:46:50;3.83;;;1.70;;
33413;SDS011;60055;41.884;12.534;2024-02-14T15:49:16;2.95;;;1.65;;
33413;SDS011;60055;41.884;12.534;2024-02-14T15:51:42;3.40;;;1.88;;
33413;SDS011;60055;41.884;12.534;2024-02-14T15:54:08;3.20;;;1.90;;
33413;SDS011;60055;41.884;12.534;2024-02-14T15:56:34;4.97;;;2.13;;
33413;SDS011;60055;41.884;12.534;2024-02-14T15:59:00;5.13;;;2.10;;